Terminal Aerodrome Forecast
Issued by NWS

Home | Current Version | Previous Version | Graphics & Text | Print | Product List | Glossary On
Versions: 1 2 3 4 5 6 7 8 9 10 11 12 13 14
000
FTUS43 KICT 142038 AAA
TAFRSL
TAF AMD
KRSL 142038Z 1421/1518 33016G23KT P6SM BKN020
     FM142300 34029G41KT P6SM BKN030
     FM150800 34015G25KT P6SM SCT250
     FM151500 32010KT P6SM SKC=

USA.gov is the U.S. government's official web portal to all federal, state and local government web resources and services.